Time;durP1;ratioP1;P1;durP2;ratioP2;P2;SDS_P1;SDS_P2;PMS_P1;PMS_P2;Temp;Humidity;BMP_temperature;BMP_pressure;BME280_temperature;BME280_humidity;BME280_pressure;Samples;Min_cycle;Max_cycle;Signal;HPM_P1;HPM_P2
2023/09/24 00:00:57;;;;;;;0.52;0.47;;;;;;;;;;5094000;28;20118;-70
2023/09/24 00:03:24;;;;;;;1.13;0.38;;;;;;;;;;5093846;28;20024;-71
2023/09/24 00:05:50;;;;;;;0.50;0.50;;;;;;;;;;5094047;28;20448;-71
2023/09/24 00:08:17;;;;;;;1.85;0.52;;;;;;;;;;5094349;28;20410;-70
2023/09/24 00:10:47;;;;;;;1.20;0.50;;;18.50;78.60;;;;;;5094206;28;20039;-70
2023/09/24 00:13:13;;;;;;;0.98;0.47;;;;;;;;;;5094359;28;20019;-70
2023/09/24 00:15:40;;;;;;;0.65;0.38;;;;;;;;;;5093663;28;20517;-70
2023/09/24 00:18:06;;;;;;;1.25;0.40;;;;;;;;;;5093647;28;20020;-70
2023/09/24 00:20:32;;;;;;;0.88;0.57;;;;;;;;;;5093550;28;20028;-70
2023/09/24 00:22:58;;;;;;;1.00;0.50;;;;;;;;;;5093844;28;20031;-70
2023/09/24 00:25:26;;;;;;;0.63;0.40;;;;;;;;;;5093386;28;20028;-70
2023/09/24 00:27:53;;;;;;;0.82;0.70;;;;;;;;;;5093914;28;20044;-70
2023/09/24 00:30:19;;;;;;;1.45;0.60;;;;;;;;;;5093336;28;20074;-70
2023/09/24 00:32:45;;;;;;;0.90;0.50;;;;;;;;;;5093318;28;20425;-70
2023/09/24 00:35:11;;;;;;;0.85;0.50;;;;;;;;;;5093278;28;20028;-70
2023/09/24 00:37:37;;;;;;;0.80;0.35;;;;;;;;;;5093287;28;20509;-70
2023/09/24 00:40:03;;;;;;;0.90;0.30;;;;;;;;;;5093342;28;20020;-70
2023/09/24 00:42:29;;;;;;;0.60;0.40;;;;;;;;;;5093355;28;20056;-70
2023/09/24 00:44:55;;;;;;;1.10;0.47;;;;;;;;;;5093269;28;20028;-70
2023/09/24 00:47:22;;;;;;;0.75;0.47;;;18.50;76.40;;;;;;5093515;28;20073;-70
2023/09/24 00:49:48;;;;;;;0.95;0.50;;;;;;;;;;5092921;28;20039;-70
2023/09/24 00:52:15;;;;;;;2.17;0.47;;;;;;;;;;5093113;28;20016;-70
2023/09/24 00:54:41;;;;;;;1.05;0.40;;;18.40;78.40;;;;;;5093500;28;20028;-70
2023/09/24 00:57:07;;;;;;;0.85;0.52;;;;;;;;;;5092784;28;20020;-70
2023/09/24 00:59:33;;;;;;;0.75;0.47;;;;;;;;;;5092803;28;20436;-70
2023/09/24 01:02:00;;;;;;;1.35;0.73;;;;;;;;;;5093012;28;20107;-70
2023/09/24 01:04:27;;;;;;;1.15;0.60;;;;;;;;;;5093135;28;20054;-70
2023/09/24 01:06:54;;;;;;;0.43;0.22;;;;;;;;;;5092753;28;20421;-69
2023/09/24 01:09:20;;;;;;;0.90;0.40;;;;;;;;;;5092732;28;20026;-70
2023/09/24 01:11:46;;;;;;;0.47;0.43;;;;;;;;;;5092658;28;20545;-69
2023/09/24 01:14:13;;;;;;;1.52;0.30;;;;;;;;;;5092610;28;20020;-69
2023/09/24 01:16:39;;;;;;;0.60;0.50;;;;;;;;;;5092427;28;20020;-69
2023/09/24 01:19:05;;;;;;;1.50;0.60;;;;;;;;;;5092768;28;20450;-70
2023/09/24 01:21:31;;;;;;;0.85;0.30;;;;;;;;;;5092416;28;20042;-70
2023/09/24 01:23:59;;;;;;;1.50;0.50;;;18.30;78.70;;;;;;5092403;28;20368;-70
2023/09/24 01:26:25;;;;;;;1.08;0.40;;;;;;;;;;5092226;28;20043;-70
2023/09/24 01:28:51;;;;;;;0.90;0.50;;;;;;;;;;5092410;28;20065;-70
2023/09/24 01:31:20;;;;;;;1.45;0.38;;;18.20;78.40;;;;;;5092272;28;20036;-70
2023/09/24 01:33:47;;;;;;;0.88;0.40;;;18.30;75.30;;;;;;5092244;28;20391;-70
2023/09/24 01:36:13;;;;;;;0.32;0.30;;;;;;;;;;5092204;28;20027;-70
2023/09/24 01:38:40;;;;;;;1.02;0.43;;;;;;;;;;5092200;28;20024;-70
2023/09/24 01:41:10;;;;;;;1.48;0.50;;;18.30;78.40;;;;;;5092043;28;20028;-70
2023/09/24 01:43:42;;;;;;;0.77;0.40;;;18.20;78.50;;;;;;5092383;28;20099;-70
2023/09/24 01:46:10;;;;;;;0.60;0.50;;;18.20;78.60;;;;;;5092204;28;20032;-70
2023/09/24 01:48:36;;;;;;;0.38;0.30;;;;;;;;;;5092142;28;20033;-70
2023/09/24 01:51:10;;;;;;;0.63;0.38;;;18.20;73.20;;;;;;5091984;28;20134;-70
2023/09/24 01:53:38;;;;;;;0.63;0.57;;;;;;;;;;5092223;28;20016;-70
2023/09/24 01:56:06;;;;;;;1.48;0.60;;;18.30;76.50;;;;;;5092202;28;20032;-70
2023/09/24 01:58:33;;;;;;;0.85;0.40;;;;;;;;;;5092231;28;20027;-70
2023/09/24 02:00:59;;;;;;;0.77;0.47;;;;;;;;;;5091789;28;20020;-70
2023/09/24 02:03:25;;;;;;;0.88;0.30;;;;;;;;;;5091798;28;20074;-70
2023/09/24 02:05:51;;;;;;;1.08;0.43;;;;;;;;;;5091828;28;20024;-70
2023/09/24 02:08:17;;;;;;;0.90;0.35;;;;;;;;;;5092060;28;20115;-70
2023/09/24 02:10:43;;;;;;;1.25;0.40;;;;;;;;;;5096813;28;20047;-70
2023/09/24 02:13:10;;;;;;;0.90;0.43;;;;;;;;;;5096127;28;20367;-70
2023/09/24 02:15:38;;;;;;;0.65;0.40;;;18.20;78.70;;;;;;5096345;28;20047;-70
2023/09/24 02:18:05;;;;;;;0.93;0.50;;;;;;;;;;5096037;28;20431;-70
2023/09/24 02:22:58;;;;;;;0.50;0.47;;;18.10;77.10;;;;;;5096219;28;20028;-70
2023/09/24 02:25:29;;;;;;;1.73;0.77;;;18.10;78.90;;;;;;5095965;28;20024;-70
2023/09/24 02:27:56;;;;;;;0.73;0.40;;;18.10;77.80;;;;;;5095699;28;20396;-70
2023/09/24 02:30:24;;;;;;;0.98;0.55;;;18.10;79.00;;;;;;5095666;28;20024;-70
2023/09/24 02:32:50;;;;;;;1.63;0.60;;;;;;;;;;5095885;28;20024;-70
2023/09/24 02:35:17;;;;;;;0.90;0.47;;;;;;;;;;5095745;28;20115;-70
2023/09/24 02:37:45;;;;;;;1.38;0.47;;;18.00;78.50;;;;;;5095784;28;20028;-70
2023/09/24 02:40:21;;;;;;;1.58;0.75;;;18.10;78.90;;;;;;5096244;28;20058;-70
2023/09/24 02:42:47;;;;;;;0.40;0.38;;;18.10;75.70;;;;;;5095761;28;20147;-70
2023/09/24 02:45:15;;;;;;;0.82;0.52;;;;;;;;;;5095594;28;20429;-70
2023/09/24 02:47:41;;;;;;;0.80;0.50;;;;;;;;;;5095564;28;20046;-70
2023/09/24 02:50:14;;;;;;;1.48;0.50;;;;;;;;;;5095429;28;20042;-70
2023/09/24 02:52:44;;;;;;;1.05;0.43;;;18.10;78.60;;;;;;5095467;28;20470;-70
2023/09/24 02:55:13;;;;;;;0.50;0.40;;;18.00;78.70;;;;;;5095417;28;20110;-70
2023/09/24 02:57:40;;;;;;;0.57;0.47;;;18.00;77.80;;;;;;5095284;28;20024;-70
2023/09/24 03:00:12;;;;;;;1.95;0.40;;;18.00;78.50;;;;;;5095121;28;20024;-70
2023/09/24 03:02:38;;;;;;;1.70;0.47;;;;;;;;;;5095076;28;20024;-70
2023/09/24 03:05:06;;;;;;;0.55;0.50;;;18.00;78.70;;;;;;5095073;28;20024;-70
2023/09/24 03:07:34;;;;;;;0.70;0.43;;;;;;;;;;5095804;28;20020;-70
2023/09/24 03:09:59;;;;;;;0.38;0.30;;;;;;;;;;5095353;28;20032;-70
2023/09/24 03:12:25;;;;;;;0.98;0.60;;;;;;;;;;5094985;28;20035;-70
2023/09/24 03:14:52;;;;;;;1.15;0.50;;;;;;;;;;5095050;28;20048;-70
2023/09/24 03:17:18;;;;;;;1.00;0.50;;;;;;;;;;5095185;28;20468;-76
2023/09/24 03:19:43;;;;;;;1.10;0.50;;;;;;;;;;5094949;28;20111;-75
2023/09/24 03:22:10;;;;;;;0.88;0.57;;;;;;;;;;5094838;28;20078;-75
2023/09/24 03:24:36;;;;;;;0.98;0.63;;;;;;;;;;5094828;28;20383;-75
2023/09/24 03:27:02;;;;;;;0.68;0.60;;;;;;;;;;5094779;28;20426;-75
2023/09/24 03:29:28;;;;;;;1.52;0.60;;;;;;;;;;5094754;28;20051;-75
2023/09/24 03:31:54;;;;;;;0.90;0.40;;;;;;;;;;5094630;28;20043;-75
2023/09/24 03:34:20;;;;;;;0.60;0.40;;;;;;;;;;5094638;28;20043;-75
2023/09/24 03:36:46;;;;;;;1.25;0.35;;;;;;;;;;5095143;28;20429;-76
2023/09/24 03:39:13;;;;;;;0.50;0.40;;;;;;;;;;5094579;28;20032;-76
2023/09/24 03:41:39;;;;;;;0.50;0.40;;;;;;;;;;5094442;28;20028;-76
2023/09/24 03:44:05;;;;;;;1.15;0.55;;;;;;;;;;5094694;28;20111;-75
2023/09/24 03:46:31;;;;;;;0.50;0.50;;;;;;;;;;5094429;28;20028;-75
2023/09/24 03:48:57;;;;;;;0.32;0.25;;;;;;;;;;5094307;28;20100;-70
2023/09/24 03:51:24;;;;;;;0.93;0.60;;;;;;;;;;5094216;28;20039;-70
2023/09/24 03:53:50;;;;;;;0.63;0.55;;;;;;;;;;5094629;28;20046;-70
2023/09/24 03:56:17;;;;;;;1.02;0.50;;;;;;;;;;5094452;28;20036;-70
2023/09/24 03:58:44;;;;;;;1.23;0.60;;;;;;;;;;5094486;28;20028;-70
2023/09/24 04:01:11;;;;;;;1.40;0.50;;;;;;;;;;5094514;28;20036;-70
2023/09/24 04:03:40;;;;;;;0.85;0.52;;;17.80;73.30;;;;;;5094547;28;20032;-70
2023/09/24 04:06:07;;;;;;;1.25;0.60;;;17.90;76.60;;;;;;5092854;28;20032;-70
2023/09/24 04:08:34;;;;;;;0.70;0.50;;;;;;;;;;5094308;28;20057;-70
2023/09/24 04:11:00;;;;;;;1.58;0.57;;;;;;;;;;5094161;28;20032;-70
2023/09/24 04:13:27;;;;;;;0.75;0.65;;;;;;;;;;5093732;28;20513;-71
2023/09/24 04:15:53;;;;;;;0.47;0.47;;;;;;;;;;5094217;28;20028;-70
2023/09/24 04:18:20;;;;;;;0.60;0.50;;;;;;;;;;5093674;28;20104;-70
2023/09/24 04:20:46;;;;;;;0.93;0.60;;;;;;;;;;5093973;28;20039;-70
2023/09/24 04:23:13;;;;;;;0.75;0.50;;;;;;;;;;5093879;28;20386;-70
2023/09/24 04:25:40;;;;;;;0.43;0.40;;;;;;;;;;5093486;28;20677;-71
2023/09/24 04:28:06;;;;;;;0.85;0.43;;;;;;;;;;5093789;28;20043;-71
2023/09/24 04:30:33;;;;;;;1.50;0.57;;;;;;;;;;5093362;28;20039;-71
2023/09/24 04:33:02;;;;;;;1.20;0.60;;;;;;;;;;5093662;28;20054;-71
2023/09/24 04:35:28;;;;;;;0.85;0.57;;;;;;;;;;5093390;28;20028;-71
2023/09/24 04:37:55;;;;;;;1.58;0.57;;;;;;;;;;5092391;28;20108;-71
2023/09/24 04:40:23;;;;;;;0.95;0.40;;;;;;;;;;5093613;28;20379;-71
2023/09/24 04:42:52;;;;;;;0.68;0.55;;;17.80;76.50;;;;;;5093610;28;20057;-71
2023/09/24 04:45:36;;;;;;;0.82;0.60;;;;;;;;;;5093042;28;20036;-71
2023/09/24 04:48:03;;;;;;;0.80;0.60;;;;;;;;;;5093476;28;20028;-71
2023/09/24 04:50:29;;;;;;;1.35;0.60;;;;;;;;;;5092819;28;20036;-71
2023/09/24 04:52:56;;;;;;;0.80;0.80;;;;;;;;;;5092922;28;20555;-71
2023/09/24 04:55:24;;;;;;;1.20;1.10;;;;;;;;;;5093357;28;20032;-71
2023/09/24 04:57:51;;;;;;;1.98;1.70;;;;;;;;;;5093156;28;20027;-71
2023/09/24 05:00:17;;;;;;;2.30;2.10;;;;;;;;;;5092974;28;20505;-71
2023/09/24 05:02:44;;;;;;;2.78;2.67;;;;;;;;;;5093649;28;20032;-71
2023/09/24 05:05:10;;;;;;;3.60;3.40;;;;;;;;;;5092784;28;20078;-71
2023/09/24 05:07:37;;;;;;;5.20;4.90;;;;;;;;;;5093017;28;20028;-71
2023/09/24 05:10:04;;;;;;;6.32;5.82;;;;;;;;;;5092604;28;20047;-71
2023/09/24 05:12:30;;;;;;;7.53;7.03;;;;;;;;;;5093015;28;20035;-71
2023/09/24 05:14:57;;;;;;;9.20;8.50;;;;;;;;;;5092952;28;20440;-71
2023/09/24 05:17:23;;;;;;;10.38;9.60;;;;;;;;;;5092616;28;20020;-71
2023/09/24 05:19:49;;;;;;;11.55;10.75;;;;;;;;;;5092545;28;20028;-71
2023/09/24 05:22:15;;;;;;;13.75;12.75;;;;;;;;;;5092522;28;20024;-71
2023/09/24 05:24:41;;;;;;;15.95;14.75;;;;;;;;;;5092405;28;20490;-71
2023/09/24 05:27:07;;;;;;;16.48;15.35;;;;;;;;;;5092239;28;20052;-71
2023/09/24 05:29:33;;;;;;;19.05;17.65;;;;;;;;;;5092961;28;20043;-70
2023/09/24 05:32:01;;;;;;;18.88;17.48;;;;;;;;;;5092266;28;20485;-71
2023/09/24 05:34:27;;;;;;;21.17;19.58;;;;;;;;;;5092371;28;20076;-71
2023/09/24 05:36:53;;;;;;;21.60;20.00;;;;;;;;;;5092424;28;20050;-71
2023/09/24 05:39:20;;;;;;;21.83;20.23;;;;;;;;;;5091057;28;20462;-70
2023/09/24 05:41:46;;;;;;;22.15;20.48;;;;;;;;;;5092240;28;20024;-71
2023/09/24 05:44:12;;;;;;;22.77;21.08;;;;;;;;;;5091616;28;20052;-70
2023/09/24 05:46:38;;;;;;;23.58;21.80;;;;;;;;;;5092399;28;20027;-71
2023/09/24 05:49:05;;;;;;;24.27;22.48;;;;;;;;;;5092291;28;20038;-71
2023/09/24 05:51:31;;;;;;;24.17;22.35;;;;;;;;;;5092317;28;20031;-71
2023/09/24 05:53:58;;;;;;;24.77;22.77;;;;;;;;;;5092104;28;20024;-71
2023/09/24 05:56:24;;;;;;;25.35;23.45;;;;;;;;;;5092285;28;20030;-71
2023/09/24 05:58:50;;;;;;;25.55;23.50;;;;;;;;;;5092674;28;20022;-70
2023/09/24 06:01:16;;;;;;;26.02;24.13;;;;;;;;;;5092175;28;20024;-71
2023/09/24 06:03:43;;;;;;;25.00;23.10;;;;;;;;;;5092091;28;20024;-71
2023/09/24 06:06:12;;;;;;;24.52;22.70;;;;;;;;;;5091988;28;20031;-71
2023/09/24 06:08:38;;;;;;;24.92;23.05;;;;;;;;;;5090812;28;20633;-71
2023/09/24 06:11:04;;;;;;;25.63;23.73;;;17.60;76.70;;;;;;5091831;28;20485;-70
2023/09/24 06:13:30;;;;;;;24.83;23.02;;;;;;;;;;5091906;28;20103;-71
2023/09/24 06:16:00;;;;;;;23.73;21.92;;;17.50;73.40;;;;;;5091999;28;20591;-71
2023/09/24 06:18:26;;;;;;;24.13;22.27;;;;;;;;;;5091964;28;20020;-71
2023/09/24 06:20:52;;;;;;;24.67;22.88;;;;;;;;;;5091795;28;20398;-70
2023/09/24 06:23:18;;;;;;;23.60;21.90;;;;;;;;;;5092058;28;20028;-71
2023/09/24 06:25:45;;;;;;;23.05;21.35;;;;;;;;;;5092190;28;20024;-71
2023/09/24 06:28:11;;;;;;;23.35;21.65;;;;;;;;;;5092476;28;20119;-71
2023/09/24 06:30:38;;;;;;;23.65;21.85;;;;;;;;;;5091595;28;20040;-71
2023/09/24 06:33:05;;;;;;;23.48;21.67;;;17.50;78.60;;;;;;5091871;28;20020;-71
2023/09/24 06:35:40;;;;;;;21.75;20.15;;;17.50;79.30;;;;;;5091549;28;20020;-71
2023/09/24 06:38:06;;;;;;;21.05;19.45;;;;;;;;;;5091889;28;20031;-70
2023/09/24 06:40:33;;;;;;;20.75;19.20;;;;;;;;;;5091645;28;20455;-70
2023/09/24 06:42:59;;;;;;;20.50;18.80;;;;;;;;;;5091509;28;20020;-72
2023/09/24 06:45:25;;;;;;;21.08;19.50;;;;;;;;;;5091523;28;20024;-70
2023/09/24 06:47:51;;;;;;;19.00;17.60;;;;;;;;;;5091547;28;20026;-70
2023/09/24 06:50:17;;;;;;;18.13;16.73;;;;;;;;;;5091454;28;20066;-72
2023/09/24 06:52:43;;;;;;;17.70;16.40;;;;;;;;;;5091564;28;20024;-71
2023/09/24 06:55:09;;;;;;;17.70;16.30;;;;;;;;;;5093317;28;20034;-71
2023/09/24 06:57:36;;;;;;;15.63;14.45;;;17.40;76.00;;;;;;5094021;28;20028;-70
2023/09/24 07:00:04;;;;;;;14.85;13.80;;;17.40;79.10;;;;;;5095439;28;20063;-70
2023/09/24 07:02:31;;;;;;;15.05;13.95;;;;;;;;;;5095319;28;20088;-70
2023/09/24 07:04:57;;;;;;;14.10;12.93;;;;;;;;;;5095441;28;20036;-70
2023/09/24 07:07:24;;;;;;;13.52;12.40;;;;;;;;;;5095154;28;20048;-70
2023/09/24 07:09:50;;;;;;;13.02;12.02;;;;;;;;;;5095064;28;20527;-70
2023/09/24 07:12:16;;;;;;;11.80;10.90;;;;;;;;;;5095034;28;20625;-70
2023/09/24 07:14:43;;;;;;;10.65;9.85;;;;;;;;;;5095229;28;20546;-70
2023/09/24 07:17:09;;;;;;;10.77;9.95;;;;;;;;;;5094881;28;20016;-70
2023/09/24 07:19:35;;;;;;;10.15;9.35;;;;;;;;;;5094868;28;20032;-79
2023/09/24 07:22:01;;;;;;;9.82;9.13;;;;;;;;;;5095180;28;20030;-72
2023/09/24 07:24:28;;;;;;;9.27;8.57;;;;;;;;;;5095305;28;20077;-70
2023/09/24 07:26:54;;;;;;;8.93;8.23;;;;;;;;;;5094552;28;20048;-70
2023/09/24 07:29:20;;;;;;;8.77;8.07;;;;;;;;;;5094576;28;20024;-78
2023/09/24 07:31:46;;;;;;;8.10;7.50;;;;;;;;;;5094657;28;20020;-75
2023/09/24 07:34:12;;;;;;;6.93;6.38;;;;;;;;;;5100443;28;20103;-71
2023/09/24 07:36:38;;;;;;;6.68;6.07;;;;;;;;;;5094885;28;20024;-71
2023/09/24 07:39:05;;;;;;;6.25;5.75;;;;;;;;;;5094805;28;20027;-72
2023/09/24 07:41:32;;;;;;;6.28;5.78;;;;;;;;;;5094426;28;20031;-69
2023/09/24 07:43:58;;;;;;;6.10;5.60;;;;;;;;;;5094417;28;20041;-69
2023/09/24 07:46:25;;;;;;;5.50;4.90;;;;;;;;;;5094328;28;20107;-70
2023/09/24 07:48:51;;;;;;;5.28;4.88;;;;;;;;;;5094257;28;20085;-70
2023/09/24 07:51:17;;;;;;;5.30;4.85;;;;;;;;;;5093950;28;20036;-70
2023/09/24 07:53:46;;;;;;;4.78;4.38;;;17.50;77.80;;;;;;5094047;28;20059;-70
2023/09/24 07:56:13;;;;;;;5.85;4.75;;;;;;;;;;5094359;28;20023;-70
2023/09/24 07:58:40;;;;;;;4.18;3.83;;;;;;;;;;5094316;28;20035;-70
2023/09/24 08:01:11;;;;;;;4.35;3.63;;;17.50;80.10;;;;;;5094250;28;20106;-70
2023/09/24 08:03:38;;;;;;;3.97;3.67;;;17.50;77.10;;;;;;5094074;28;20073;-70
2023/09/24 08:06:05;;;;;;;4.32;3.47;;;17.50;77.80;;;;;;5093657;28;20040;-70
2023/09/24 08:08:35;;;;;;;3.15;2.95;;;17.50;80.40;;;;;;5093985;28;20020;-69
2023/09/24 08:11:02;;;;;;;3.78;2.53;;;;;;;;;;5094835;28;20081;-70
2023/09/24 08:13:29;;;;;;;5.10;2.95;;;;;;;;;;5093734;28;20539;-70
2023/09/24 08:15:56;;;;;;;2.38;2.17;;;;;;;;;;5094005;28;20395;-70
2023/09/24 08:18:25;;;;;;;5.00;2.50;;;17.60;80.70;;;;;;5093939;28;20020;-70
2023/09/24 08:20:55;;;;;;;2.40;2.20;;;;;;;;;;5093849;28;20032;-70
2023/09/24 08:23:23;;;;;;;1.92;1.73;;;;;;;;;;5093683;28;20130;-70
2023/09/24 08:25:51;;;;;;;2.05;1.80;;;17.70;81.00;;;;;;5093439;28;20232;-70
2023/09/24 08:28:18;;;;;;;1.60;1.50;;;;;;;;;;5093941;28;20048;-70
2023/09/24 08:30:46;;;;;;;2.75;1.70;;;;;;;;;;5093810;28;20044;-70
2023/09/24 08:33:13;;;;;;;3.05;1.70;;;;;;;;;;5093879;28;20074;-69
2023/09/24 08:35:39;;;;;;;2.13;1.55;;;;;;;;;;5093449;28;20031;-70
2023/09/24 08:38:06;;;;;;;1.95;1.55;;;17.70;79.60;;;;;;5093777;28;20048;-70
2023/09/24 08:40:33;;;;;;;2.05;1.42;;;;;;;;;;5094196;28;20031;-70
2023/09/24 08:42:59;;;;;;;2.10;1.73;;;;;;;;;;5093297;28;20032;-69
2023/09/24 08:45:28;;;;;;;2.13;1.27;;;;;;;;;;5093399;28;20487;-70
2023/09/24 08:47:55;;;;;;;1.58;1.40;;;17.80;80.10;;;;;;5093222;28;20031;-69
2023/09/24 08:50:22;;;;;;;1.58;1.40;;;;;;;;;;5093644;28;20436;-69
2023/09/24 08:52:48;;;;;;;2.50;1.17;;;;;;;;;;5093476;28;20048;-70
2023/09/24 08:55:15;;;;;;;1.45;1.30;;;;;;;;;;5093343;28;20111;-69
2023/09/24 08:57:43;;;;;;;2.83;1.20;;;18.00;82.60;;;;;;5093403;28;20028;-69
2023/09/24 09:00:11;;;;;;;1.27;1.17;;;18.00;82.60;;;;;;5093226;28;20108;-69
2023/09/24 09:02:41;;;;;;;1.30;1.20;;;18.00;82.20;;;;;;5092835;28;20020;-69
2023/09/24 09:05:25;;;;;;;1.02;0.82;;;18.00;77.20;;;;;;5093041;28;20020;-69
2023/09/24 09:07:59;;;;;;;1.95;1.30;;;18.10;77.30;;;;;;5093408;28;20425;-69
2023/09/24 09:10:27;;;;;;;2.67;1.00;;;18.10;82.30;;;;;;5092532;28;20474;-69
2023/09/24 09:13:13;;;;;;;1.05;0.98;;;18.20;78.00;;;;;;5092540;28;20024;-69
2023/09/24 09:15:41;;;;;;;1.45;1.10;;;18.30;83.00;;;;;;5092821;28;20028;-69
2023/09/24 09:18:22;;;;;;;1.55;0.80;;;18.10;82.90;;;;;;5092408;28;20032;-69
2023/09/24 09:20:50;;;;;;;1.45;0.80;;;;;;;;;;5092888;28;20024;-69
2023/09/24 09:23:43;;;;;;;1.40;1.17;;;18.40;83.90;;;;;;5092784;28;20464;-69
2023/09/24 09:26:10;;;;;;;0.95;0.80;;;;;;;;;;5092551;28;20452;-69
2023/09/24 09:28:38;;;;;;;1.20;1.10;;;;;;;;;;5092686;28;20024;-69
2023/09/24 09:31:07;;;;;;;1.75;1.00;;;;;;;;;;5092627;28;20112;-69
2023/09/24 09:33:40;;;;;;;2.35;0.90;;;18.50;78.10;;;;;;5092331;28;20020;-69
2023/09/24 09:36:32;;;;;;;1.30;0.98;;;16.80;76.90;;;;;;5093177;28;20012;-69
2023/09/24 09:38:59;;;;;;;1.30;1.08;;;;;;;;;;5092267;28;20024;-69
2023/09/24 09:41:28;;;;;;;2.50;1.30;;;;;;;;;;5092437;28;20114;-69
2023/09/24 09:44:00;;;;;;;1.85;0.80;;;18.80;83.20;;;;;;5092696;28;20028;-69
2023/09/24 09:46:27;;;;;;;1.02;0.90;;;;;;;;;;5092188;28;20027;-69
2023/09/24 09:49:02;;;;;;;1.13;0.70;;;18.90;77.70;;;;;;5092428;28;20054;-69
2023/09/24 09:51:44;;;;;;;1.42;0.90;;;18.90;83.20;;;;;;5092066;28;20119;-69
2023/09/24 09:54:11;;;;;;;1.05;0.77;;;;;;;;;;5092375;28;20383;-69
2023/09/24 09:56:38;;;;;;;1.90;0.63;;;19.10;82.90;;;;;;5092284;28;20044;-69
2023/09/24 09:59:05;;;;;;;1.48;0.88;;;;;;;;;;5092210;28;20035;-69
2023/09/24 10:01:31;;;;;;;1.13;0.80;;;;;;;;;;5092126;28;20059;-69
2023/09/24 10:04:08;;;;;;;1.80;1.00;;;19.30;82.80;;;;;;5092146;28;20386;-69
2023/09/24 10:06:38;;;;;;;1.42;1.05;;;19.40;82.80;;;;;;5092232;28;20024;-69
2023/09/24 10:09:25;;;;;;;1.63;0.90;;;19.40;77.10;;;;;;5092284;28;20012;-69
2023/09/24 10:11:53;;;;;;;2.63;1.00;;;19.50;82.70;;;;;;5091937;28;20573;-69
2023/09/24 10:14:34;;;;;;;2.28;0.82;;;19.70;77.40;;;;;;5091637;28;20039;-69
2023/09/24 10:17:22;;;;;;;2.08;1.08;;;19.60;77.20;;;;;;5091637;28;20039;-69
2023/09/24 10:19:49;;;;;;;2.50;0.85;;;19.70;82.40;;;;;;5091921;28;20382;-69
2023/09/24 10:22:25;;;;;;;2.08;1.10;;;19.80;77.40;;;;;;5091834;28;20024;-69
2023/09/24 10:24:52;;;;;;;1.13;0.73;;;;;;;;;;5091645;28;20030;-69
2023/09/24 10:27:25;;;;;;;1.70;1.10;;;19.90;77.00;;;;;;5091523;28;20056;-69
2023/09/24 10:29:53;;;;;;;1.20;0.88;;;;;;;;;;5092418;28;20107;-69
2023/09/24 10:32:21;;;;;;;1.35;0.88;;;20.00;81.00;;;;;;5095919;28;20028;-69
2023/09/24 10:34:57;;;;;;;0.75;0.75;;;20.10;76.90;;;;;;5096446;28;20024;-69
2023/09/24 10:37:25;;;;;;;1.58;0.70;;;20.10;82.20;;;;;;5095759;28;20063;-69
2023/09/24 10:40:09;;;;;;;2.15;0.90;;;20.30;76.70;;;;;;5095644;28;20098;-69
2023/09/24 10:42:41;;;;;;;1.15;1.00;;;20.30;82.30;;;;;;5095838;28;20105;-69
2023/09/24 10:45:08;;;;;;;1.33;0.98;;;;;;;;;;5095816;28;20360;-69
2023/09/24 10:47:36;;;;;;;3.80;1.10;;;20.50;81.80;;;;;;5095473;28;20028;-69
2023/09/24 10:50:06;;;;;;;1.13;0.88;;;20.50;76.20;;;;;;5095579;28;20047;-69
2023/09/24 10:52:54;;;;;;;3.83;1.10;;;20.60;76.00;;;;;;5095410;28;20382;-69
2023/09/24 10:55:43;;;;;;;2.45;0.90;;;20.70;81.30;;;;;;5095635;28;20043;-69
2023/09/24 10:58:14;;;;;;;2.60;1.08;;;20.80;81.10;;;;;;5095356;28;20046;-69
2023/09/24 11:00:42;;;;;;;1.38;1.00;;;20.80;81.00;;;;;;5095182;28;20478;-69
2023/09/24 11:03:10;;;;;;;1.02;0.60;;;20.90;80.80;;;;;;5095657;28;20024;-69
2023/09/24 11:05:45;;;;;;;1.35;0.80;;;21.10;75.40;;;;;;5095505;28;20054;-69
2023/09/24 11:08:13;;;;;;;1.67;0.90;;;21.10;80.80;;;;;;5095420;28;20024;-69
2023/09/24 11:10:40;;;;;;;1.23;0.93;;;;;;;;;;5094954;28;20089;-70
2023/09/24 11:13:07;;;;;;;0.80;0.65;;;21.30;78.30;;;;;;5095068;28;20524;-69
2023/09/24 11:15:38;;;;;;;2.40;0.85;;;21.20;80.20;;;;;;5095334;28;20387;-69
2023/09/24 11:18:06;;;;;;;1.77;1.00;;;21.40;80.00;;;;;;5095261;28;20027;-69
2023/09/24 11:20:34;;;;;;;1.58;0.70;;;;;;;;;;5095171;28;20027;-69
2023/09/24 11:23:09;;;;;;;1.38;0.85;;;21.60;74.50;;;;;;5095368;28;20186;-69
2023/09/24 11:25:36;;;;;;;0.98;0.82;;;;;;;;;;5095105;28;20547;-69
2023/09/24 11:28:04;;;;;;;1.27;0.88;;;21.70;79.40;;;;;;5094599;28;20044;-69
2023/09/24 11:30:44;;;;;;;1.25;0.95;;;21.80;73.80;;;;;;5095483;28;20363;-69
2023/09/24 11:33:13;;;;;;;1.13;0.80;;;21.90;79.30;;;;;;5094974;28;20044;-69
2023/09/24 11:35:40;;;;;;;1.15;0.70;;;;;;;;;;5094629;28;20028;-69
2023/09/24 11:38:06;;;;;;;1.77;0.90;;;;;;;;;;5094571;28;20054;-69
2023/09/24 11:40:33;;;;;;;2.15;1.17;;;22.10;79.50;;;;;;5094269;28;20024;-70
2023/09/24 11:43:20;;;;;;;1.23;0.73;;;22.10;79.60;;;;;;5093461;28;20021;-69
2023/09/24 11:45:47;;;;;;;1.75;0.95;;;;;;;;;;5094492;28;20213;-70
2023/09/24 11:48:18;;;;;;;2.00;0.82;;;22.20;79.40;;;;;;5094292;28;20084;-70
2023/09/24 11:50:50;;;;;;;1.05;0.60;;;22.30;79.60;;;;;;5094223;28;20547;-69
2023/09/24 11:53:17;;;;;;;1.35;0.90;;;22.40;79.80;;;;;;5094261;28;20086;-70
2023/09/24 11:55:43;;;;;;;1.65;0.85;;;;;;;;;;5094236;28;20396;-70
2023/09/24 11:58:13;;;;;;;1.40;1.10;;;;;;;;;;5094702;28;20028;-70
2023/09/24 12:00:39;;;;;;;1.65;0.77;;;;;;;;;;5094388;28;20035;-70
2023/09/24 12:03:06;;;;;;;2.00;1.15;;;22.40;78.10;;;;;;5094192;28;20543;-70
2023/09/24 12:05:32;;;;;;;2.55;1.00;;;22.50;80.70;;;;;;5094203;28;20052;-70
2023/09/24 12:07:59;;;;;;;1.45;1.02;;;;;;;;;;5094405;28;20469;-70
2023/09/24 12:10:25;;;;;;;1.73;1.08;;;;;;;;;;5094005;28;20390;-70
2023/09/24 12:12:51;;;;;;;1.15;0.80;;;;;;;;;;5094140;28;20024;-70
2023/09/24 12:15:18;;;;;;;1.67;0.80;;;22.70;71.10;;;;;;5094071;28;20107;-70
2023/09/24 12:17:45;;;;;;;1.05;0.80;;;22.80;67.80;;;;;;5094146;28;20047;-70
2023/09/24 12:20:12;;;;;;;1.08;0.60;;;22.80;67.60;;;;;;5094047;28;20024;-70
2023/09/24 12:22:42;;;;;;;1.83;0.93;;;22.30;65.00;;;;;;5093945;28;20031;-70
2023/09/24 12:25:10;;;;;;;1.88;1.10;;;22.90;70.70;;;;;;5093975;28;20059;-70
2023/09/24 12:27:36;;;;;;;1.02;0.73;;;;;;;;;;5094137;28;20059;-70
2023/09/24 12:30:04;;;;;;;1.05;0.90;;;;;;;;;;5093721;28;20355;-70
2023/09/24 12:32:30;;;;;;;1.52;0.73;;;;;;;;;;5093756;28;20069;-70
2023/09/24 12:34:56;;;;;;;2.42;1.20;;;;;;;;;;5093727;28;20028;-70
2023/09/24 12:37:22;;;;;;;2.33;0.73;;;;;;;;;;5093703;28;20042;-70
2023/09/24 12:39:48;;;;;;;1.92;0.98;;;;;;;;;;5093672;28;20399;-70
2023/09/24 12:42:14;;;;;;;1.38;1.08;;;;;;;;;;5093635;28;20020;-70
2023/09/24 12:44:40;;;;;;;2.03;1.02;;;;;;;;;;5093475;28;20035;-70
2023/09/24 12:47:06;;;;;;;1.15;0.90;;;;;;;;;;5093732;28;20020;-70
2023/09/24 12:49:32;;;;;;;0.98;0.98;;;;;;;;;;5093394;28;20039;-70
2023/09/24 12:51:58;;;;;;;1.10;0.95;;;;;;;;;;5093373;28;20116;-70
2023/09/24 12:54:24;;;;;;;1.33;0.77;;;;;;;;;;5093021;28;20020;-70
2023/09/24 12:56:51;;;;;;;1.08;0.90;;;;;;;;;;5093858;28;20034;-70
2023/09/24 12:59:17;;;;;;;1.38;0.88;;;;;;;;;;5093281;28;20383;-70
2023/09/24 13:01:45;;;;;;;2.30;1.27;;;;;;;;;;5093028;28;20034;-70
2023/09/24 13:04:11;;;;;;;1.77;0.90;;;;;;;;;;5093167;28;20016;-70
2023/09/24 13:06:38;;;;;;;1.52;1.00;;;;;;;;;;5093115;28;20107;-70
2023/09/24 13:09:05;;;;;;;1.38;1.00;;;;;;;;;;5093082;28;20435;-70
2023/09/24 13:11:31;;;;;;;1.85;0.93;;;;;;;;;;5092911;28;20052;-70
2023/09/24 13:13:57;;;;;;;1.15;0.80;;;;;;;;;;5092880;28;20062;-70
2023/09/24 13:16:23;;;;;;;1.00;0.90;;;;;;;;;;5092818;28;20492;-70
2023/09/24 13:18:49;;;;;;;2.38;1.05;;;;;;;;;;5092804;28;20024;-70
2023/09/24 13:21:15;;;;;;;1.23;0.93;;;;;;;;;;5092813;28;20024;-70
2023/09/24 13:23:41;;;;;;;1.92;1.10;;;;;;;;;;5093250;28;20027;-76
2023/09/24 13:26:07;;;;;;;1.00;0.85;;;;;;;;;;5092689;28;20044;-76
2023/09/24 13:28:33;;;;;;;0.90;0.70;;;;;;;;;;5092772;28;20028;-76
2023/09/24 13:31:00;;;;;;;1.25;0.80;;;;;;;;;;5092703;28;20047;-77
2023/09/24 13:33:26;;;;;;;1.33;1.00;;;;;;;;;;5093089;28;20065;-77
2023/09/24 13:35:52;;;;;;;1.73;0.85;;;;;;;;;;5092564;28;20024;-77
2023/09/24 13:38:18;;;;;;;1.25;0.98;;;;;;;;;;5092680;28;20020;-76
2023/09/24 13:40:44;;;;;;;2.42;0.90;;;;;;;;;;5092673;28;20481;-75
2023/09/24 13:43:10;;;;;;;2.03;0.90;;;;;;;;;;5092439;28;20024;-77
2023/09/24 13:45:45;;;;;;;1.00;0.80;;;24.00;62.30;;;;;;5092379;28;20031;-74
2023/09/24 13:48:12;;;;;;;1.95;1.23;;;;;;;;;;5092347;28;20024;-75
2023/09/24 13:50:38;;;;;;;1.35;0.80;;;;;;;;;;5092111;28;20505;-77
2023/09/24 13:53:04;;;;;;;1.38;0.85;;;;;;;;;;5092686;28;20031;-75
2023/09/24 13:55:35;;;;;;;2.45;1.10;;;24.20;61.80;;;;;;5092100;28;20024;-75
2023/09/24 13:58:02;;;;;;;;;;;24.20;68.30;;;;;;5092397;28;20039;-75
2023/09/24 14:00:28;;;;;;;1.10;0.80;;;;;;;;;;5092082;28;19904;-75
2023/09/24 14:02:54;;;;;;;2.47;1.05;;;;;;;;;;5092168;28;20028;-76
2023/09/24 14:05:20;;;;;;;1.35;0.80;;;;;;;;;;5091317;28;20024;-75
2023/09/24 14:07:46;;;;;;;1.75;1.02;;;;;;;;;;5092050;28;20024;-75